sensor_id;sensor_type;location;lat;lon;timestamp;P1;durP1;ratioP1;P2;durP2;ratioP2
71916;SDS011;59793;46.506;6.674;2023-03-20T00:00:42;3.38;;;1.45;;
71916;SDS011;59793;46.506;6.674;2023-03-20T00:03:10;3.50;;;1.48;;
71916;SDS011;59793;46.506;6.674;2023-03-20T00:05:36;3.33;;;1.33;;
71916;SDS011;59793;46.506;6.674;2023-03-20T00:08:02;5.10;;;1.93;;
71916;SDS011;59793;46.506;6.674;2023-03-20T00:10:30;2.50;;;1.60;;
71916;SDS011;59793;46.506;6.674;2023-03-20T00:13:00;5.20;;;2.08;;
71916;SDS011;59793;46.506;6.674;2023-03-20T00:15:30;3.55;;;2.22;;
71916;SDS011;59793;46.506;6.674;2023-03-20T00:17:59;5.80;;;2.38;;
71916;SDS011;59793;46.506;6.674;2023-03-20T00:20:24;3.85;;;2.15;;
71916;SDS011;59793;46.506;6.674;2023-03-20T00:22:50;5.20;;;2.25;;
71916;SDS011;59793;46.506;6.674;2023-03-20T00:25:19;2.35;;;1.92;;
71916;SDS011;59793;46.506;6.674;2023-03-20T00:27:47;4.00;;;2.00;;
71916;SDS011;59793;46.506;6.674;2023-03-20T00:32:47;3.38;;;2.45;;
71916;SDS011;59793;46.506;6.674;2023-03-20T00:35:24;4.47;;;2.55;;
71916;SDS011;59793;46.506;6.674;2023-03-20T00:37:52;3.53;;;2.55;;
71916;SDS011;59793;46.506;6.674;2023-03-20T00:40:18;4.25;;;2.50;;
71916;SDS011;59793;46.506;6.674;2023-03-20T00:42:49;4.50;;;2.90;;
71916;SDS011;59793;46.506;6.674;2023-03-20T00:45:21;4.03;;;2.63;;
71916;SDS011;59793;46.506;6.674;2023-03-20T00:47:48;3.47;;;2.63;;
71916;SDS011;59793;46.506;6.674;2023-03-20T00:50:25;4.15;;;2.60;;
71916;SDS011;59793;46.506;6.674;2023-03-20T00:52:56;3.92;;;2.20;;
71916;SDS011;59793;46.506;6.674;2023-03-20T00:55:24;5.97;;;2.72;;
71916;SDS011;59793;46.506;6.674;2023-03-20T00:57:59;4.65;;;2.65;;
71916;SDS011;59793;46.506;6.674;2023-03-20T01:00:41;3.33;;;2.50;;
71916;SDS011;59793;46.506;6.674;2023-03-20T01:03:15;3.80;;;2.35;;
71916;SDS011;59793;46.506;6.674;2023-03-20T01:05:46;6.53;;;2.70;;
71916;SDS011;59793;46.506;6.674;2023-03-20T01:08:12;5.43;;;2.50;;
71916;SDS011;59793;46.506;6.674;2023-03-20T01:10:46;3.92;;;2.30;;
71916;SDS011;59793;46.506;6.674;2023-03-20T01:13:21;3.45;;;2.33;;
71916;SDS011;59793;46.506;6.674;2023-03-20T01:15:49;3.50;;;2.33;;
71916;SDS011;59793;46.506;6.674;2023-03-20T01:18:17;3.63;;;2.75;;
71916;SDS011;59793;46.506;6.674;2023-03-20T01:20:44;3.67;;;2.38;;
71916;SDS011;59793;46.506;6.674;2023-03-20T01:23:10;3.90;;;2.80;;
71916;SDS011;59793;46.506;6.674;2023-03-20T01:25:36;5.40;;;2.67;;
71916;SDS011;59793;46.506;6.674;2023-03-20T01:28:03;4.90;;;2.50;;
71916;SDS011;59793;46.506;6.674;2023-03-20T01:30:38;3.47;;;2.63;;
71916;SDS011;59793;46.506;6.674;2023-03-20T01:33:37;3.75;;;2.28;;
71916;SDS011;59793;46.506;6.674;2023-03-20T01:35:55;4.22;;;1.75;;
71916;SDS011;59793;46.506;6.674;2023-03-20T01:38:22;2.97;;;1.97;;
71916;SDS011;59793;46.506;6.674;2023-03-20T01:40:57;5.13;;;2.10;;
71916;SDS011;59793;46.506;6.674;2023-03-20T01:43:27;3.08;;;1.80;;
71916;SDS011;59793;46.506;6.674;2023-03-20T01:45:55;3.85;;;2.63;;
71916;SDS011;59793;46.506;6.674;2023-03-20T01:51:14;3.72;;;2.25;;
71916;SDS011;59793;46.506;6.674;2023-03-20T01:53:44;3.13;;;2.20;;
71916;SDS011;59793;46.506;6.674;2023-03-20T01:56:14;2.92;;;1.95;;
71916;SDS011;59793;46.506;6.674;2023-03-20T01:58:42;1.40;;;1.30;;
71916;SDS011;59793;46.506;6.674;2023-03-20T02:01:12;2.80;;;1.70;;
71916;SDS011;59793;46.506;6.674;2023-03-20T02:03:39;3.53;;;1.70;;
71916;SDS011;59793;46.506;6.674;2023-03-20T02:06:08;1.50;;;1.27;;
71916;SDS011;59793;46.506;6.674;2023-03-20T02:08:47;1.60;;;1.10;;
71916;SDS011;59793;46.506;6.674;2023-03-20T02:11:14;2.30;;;1.48;;
71916;SDS011;59793;46.506;6.674;2023-03-20T02:13:42;3.47;;;1.00;;
71916;SDS011;59793;46.506;6.674;2023-03-20T02:38:36;3.08;;;1.17;;
71916;SDS011;59793;46.506;6.674;2023-03-20T02:52:00;2.42;;;1.67;;
71916;SDS011;59793;46.506;6.674;2023-03-20T02:57:07;1.00;;;0.90;;
71916;SDS011;59793;46.506;6.674;2023-03-20T03:00:25;1.20;;;1.00;;
71916;SDS011;59793;46.506;6.674;2023-03-20T03:05:07;1.20;;;0.88;;
71916;SDS011;59793;46.506;6.674;2023-03-20T03:07:39;1.48;;;0.90;;
71916;SDS011;59793;46.506;6.674;2023-03-20T03:10:19;1.27;;;0.90;;
71916;SDS011;59793;46.506;6.674;2023-03-20T03:12:51;0.73;;;0.73;;
71916;SDS011;59793;46.506;6.674;2023-03-20T03:15:20;2.10;;;1.10;;
71916;SDS011;59793;46.506;6.674;2023-03-20T03:17:52;2.58;;;0.90;;
71916;SDS011;59793;46.506;6.674;2023-03-20T03:20:27;0.93;;;0.80;;
71916;SDS011;59793;46.506;6.674;2023-03-20T03:22:56;2.10;;;1.10;;
71916;SDS011;59793;46.506;6.674;2023-03-20T03:25:23;0.75;;;0.68;;
71916;SDS011;59793;46.506;6.674;2023-03-20T03:27:58;3.10;;;0.75;;
71916;SDS011;59793;46.506;6.674;2023-03-20T03:30:32;1.75;;;0.90;;
71916;SDS011;59793;46.506;6.674;2023-03-20T03:36:06;1.67;;;0.90;;
71916;SDS011;59793;46.506;6.674;2023-03-20T03:43:56;2.03;;;1.00;;
71916;SDS011;59793;46.506;6.674;2023-03-20T03:48:58;1.30;;;0.88;;
71916;SDS011;59793;46.506;6.674;2023-03-20T03:51:27;2.85;;;1.10;;
71916;SDS011;59793;46.506;6.674;2023-03-20T03:54:01;1.27;;;0.90;;
71916;SDS011;59793;46.506;6.674;2023-03-20T03:56:35;1.60;;;1.15;;
71916;SDS011;59793;46.506;6.674;2023-03-20T03:59:07;3.70;;;1.00;;
71916;SDS011;59793;46.506;6.674;2023-03-20T04:01:36;2.55;;;1.33;;
71916;SDS011;59793;46.506;6.674;2023-03-20T04:04:03;2.35;;;1.20;;
71916;SDS011;59793;46.506;6.674;2023-03-20T04:06:32;1.48;;;1.13;;
71916;SDS011;59793;46.506;6.674;2023-03-20T04:08:57;1.13;;;0.90;;
71916;SDS011;59793;46.506;6.674;2023-03-20T04:11:24;1.35;;;0.90;;
71916;SDS011;59793;46.506;6.674;2023-03-20T04:13:52;2.08;;;1.08;;
71916;SDS011;59793;46.506;6.674;2023-03-20T04:16:18;1.25;;;0.90;;
71916;SDS011;59793;46.506;6.674;2023-03-20T04:18:45;1.48;;;1.05;;
71916;SDS011;59793;46.506;6.674;2023-03-20T04:21:11;1.60;;;0.83;;
71916;SDS011;59793;46.506;6.674;2023-03-20T04:23:37;1.50;;;1.25;;
71916;SDS011;59793;46.506;6.674;2023-03-20T04:26:02;1.52;;;1.02;;
71916;SDS011;59793;46.506;6.674;2023-03-20T04:28:28;1.67;;;1.20;;
71916;SDS011;59793;46.506;6.674;2023-03-20T04:30:55;2.20;;;1.03;;
71916;SDS011;59793;46.506;6.674;2023-03-20T04:33:22;1.40;;;0.95;;
71916;SDS011;59793;46.506;6.674;2023-03-20T04:35:50;1.80;;;1.02;;
71916;SDS011;59793;46.506;6.674;2023-03-20T04:38:16;1.58;;;0.98;;
71916;SDS011;59793;46.506;6.674;2023-03-20T04:40:44;1.80;;;1.08;;
71916;SDS011;59793;46.506;6.674;2023-03-20T04:43:11;1.60;;;0.93;;
71916;SDS011;59793;46.506;6.674;2023-03-20T04:45:37;1.95;;;1.00;;
71916;SDS011;59793;46.506;6.674;2023-03-20T04:48:02;1.00;;;0.90;;
71916;SDS011;59793;46.506;6.674;2023-03-20T04:50:28;2.17;;;1.23;;
71916;SDS011;59793;46.506;6.674;2023-03-20T04:52:53;3.03;;;1.23;;
71916;SDS011;59793;46.506;6.674;2023-03-20T04:55:19;2.78;;;1.20;;
71916;SDS011;59793;46.506;6.674;2023-03-20T04:57:46;3.75;;;1.13;;
71916;SDS011;59793;46.506;6.674;2023-03-20T05:00:11;4.07;;;1.30;;
71916;SDS011;59793;46.506;6.674;2023-03-20T05:02:37;1.80;;;1.23;;
71916;SDS011;59793;46.506;6.674;2023-03-20T05:05:03;2.28;;;1.30;;
71916;SDS011;59793;46.506;6.674;2023-03-20T05:07:28;4.25;;;1.20;;
71916;SDS011;59793;46.506;6.674;2023-03-20T05:09:54;1.13;;;0.93;;
71916;SDS011;59793;46.506;6.674;2023-03-20T05:12:19;1.73;;;1.13;;
71916;SDS011;59793;46.506;6.674;2023-03-20T05:14:45;2.58;;;1.75;;
71916;SDS011;59793;46.506;6.674;2023-03-20T05:17:10;1.20;;;0.93;;
71916;SDS011;59793;46.506;6.674;2023-03-20T05:19:35;5.13;;;1.50;;
71916;SDS011;59793;46.506;6.674;2023-03-20T05:22:02;1.85;;;1.30;;
71916;SDS011;59793;46.506;6.674;2023-03-20T05:24:28;3.57;;;1.30;;
71916;SDS011;59793;46.506;6.674;2023-03-20T05:26:54;3.28;;;1.17;;
71916;SDS011;59793;46.506;6.674;2023-03-20T05:29:19;1.45;;;1.08;;
71916;SDS011;59793;46.506;6.674;2023-03-20T05:31:45;4.35;;;1.45;;
71916;SDS011;59793;46.506;6.674;2023-03-20T05:34:10;5.03;;;1.50;;
71916;SDS011;59793;46.506;6.674;2023-03-20T05:36:36;1.83;;;1.17;;
71916;SDS011;59793;46.506;6.674;2023-03-20T05:39:01;2.13;;;1.30;;
71916;SDS011;59793;46.506;6.674;2023-03-20T05:41:27;5.78;;;1.70;;
71916;SDS011;59793;46.506;6.674;2023-03-20T05:43:52;2.22;;;1.48;;
71916;SDS011;59793;46.506;6.674;2023-03-20T05:46:18;3.50;;;1.20;;
71916;SDS011;59793;46.506;6.674;2023-03-20T05:48:43;1.23;;;0.90;;
71916;SDS011;59793;46.506;6.674;2023-03-20T05:51:08;1.88;;;1.17;;
71916;SDS011;59793;46.506;6.674;2023-03-20T05:53:34;3.92;;;1.52;;
71916;SDS011;59793;46.506;6.674;2023-03-20T05:56:00;5.72;;;2.05;;
71916;SDS011;59793;46.506;6.674;2023-03-20T05:58:25;4.20;;;1.77;;
71916;SDS011;59793;46.506;6.674;2023-03-20T06:00:50;1.65;;;1.17;;
71916;SDS011;59793;46.506;6.674;2023-03-20T06:03:16;2.17;;;1.40;;
71916;SDS011;59793;46.506;6.674;2023-03-20T06:05:42;2.75;;;1.23;;
71916;SDS011;59793;46.506;6.674;2023-03-20T06:08:08;4.35;;;2.20;;
71916;SDS011;59793;46.506;6.674;2023-03-20T06:10:33;3.35;;;1.70;;
71916;SDS011;59793;46.506;6.674;2023-03-20T06:12:59;3.80;;;2.30;;
71916;SDS011;59793;46.506;6.674;2023-03-20T06:15:25;3.22;;;1.80;;
71916;SDS011;59793;46.506;6.674;2023-03-20T06:17:52;4.75;;;1.65;;
71916;SDS011;59793;46.506;6.674;2023-03-20T06:20:18;5.03;;;1.98;;
71916;SDS011;59793;46.506;6.674;2023-03-20T06:22:44;3.33;;;1.85;;
71916;SDS011;59793;46.506;6.674;2023-03-20T06:25:10;4.03;;;1.90;;
71916;SDS011;59793;46.506;6.674;2023-03-20T06:27:36;4.33;;;1.80;;
71916;SDS011;59793;46.506;6.674;2023-03-20T06:30:01;4.93;;;1.50;;
71916;SDS011;59793;46.506;6.674;2023-03-20T06:32:27;3.50;;;1.93;;
71916;SDS011;59793;46.506;6.674;2023-03-20T06:34:52;4.47;;;1.35;;
71916;SDS011;59793;46.506;6.674;2023-03-20T06:37:18;3.45;;;1.55;;
71916;SDS011;59793;46.506;6.674;2023-03-20T06:39:44;2.50;;;1.60;;
71916;SDS011;59793;46.506;6.674;2023-03-20T06:42:10;2.10;;;1.55;;
71916;SDS011;59793;46.506;6.674;2023-03-20T06:44:37;2.78;;;1.23;;
71916;SDS011;59793;46.506;6.674;2023-03-20T06:47:02;2.07;;;1.27;;
71916;SDS011;59793;46.506;6.674;2023-03-20T06:49:28;2.85;;;1.60;;
71916;SDS011;59793;46.506;6.674;2023-03-20T06:51:53;5.68;;;2.97;;
71916;SDS011;59793;46.506;6.674;2023-03-20T06:54:19;1.88;;;1.48;;
71916;SDS011;59793;46.506;6.674;2023-03-20T06:56:44;4.60;;;1.50;;
71916;SDS011;59793;46.506;6.674;2023-03-20T06:59:10;5.90;;;1.80;;
71916;SDS011;59793;46.506;6.674;2023-03-20T07:01:36;2.60;;;1.80;;
71916;SDS011;59793;46.506;6.674;2023-03-20T07:04:01;5.75;;;2.00;;
71916;SDS011;59793;46.506;6.674;2023-03-20T07:06:26;3.33;;;1.97;;
71916;SDS011;59793;46.506;6.674;2023-03-20T07:08:52;2.37;;;1.37;;
71916;SDS011;59793;46.506;6.674;2023-03-20T07:11:17;5.30;;;1.60;;
71916;SDS011;59793;46.506;6.674;2023-03-20T07:13:43;2.03;;;1.58;;
71916;SDS011;59793;46.506;6.674;2023-03-20T07:16:09;3.53;;;1.93;;
71916;SDS011;59793;46.506;6.674;2023-03-20T07:18:34;4.43;;;1.90;;
71916;SDS011;59793;46.506;6.674;2023-03-20T07:21:01;4.57;;;1.67;;
71916;SDS011;59793;46.506;6.674;2023-03-20T07:23:29;3.35;;;1.60;;
71916;SDS011;59793;46.506;6.674;2023-03-20T07:25:55;2.00;;;1.45;;
71916;SDS011;59793;46.506;6.674;2023-03-20T07:28:22;2.10;;;1.50;;
71916;SDS011;59793;46.506;6.674;2023-03-20T07:30:47;2.67;;;1.52;;
71916;SDS011;59793;46.506;6.674;2023-03-20T07:33:13;3.03;;;1.40;;
71916;SDS011;59793;46.506;6.674;2023-03-20T07:35:39;3.65;;;1.70;;
71916;SDS011;59793;46.506;6.674;2023-03-20T07:38:04;3.20;;;1.55;;
71916;SDS011;59793;46.506;6.674;2023-03-20T07:40:31;4.20;;;1.58;;
71916;SDS011;59793;46.506;6.674;2023-03-20T07:42:56;2.13;;;1.53;;
71916;SDS011;59793;46.506;6.674;2023-03-20T07:45:22;2.53;;;1.58;;
71916;SDS011;59793;46.506;6.674;2023-03-20T07:47:47;3.38;;;1.10;;
71916;SDS011;59793;46.506;6.674;2023-03-20T07:50:13;2.03;;;1.20;;
71916;SDS011;59793;46.506;6.674;2023-03-20T07:52:38;2.10;;;1.40;;
71916;SDS011;59793;46.506;6.674;2023-03-20T07:55:05;2.60;;;1.33;;
71916;SDS011;59793;46.506;6.674;2023-03-20T07:57:31;4.95;;;2.20;;
71916;SDS011;59793;46.506;6.674;2023-03-20T07:59:57;2.50;;;1.17;;
71916;SDS011;59793;46.506;6.674;2023-03-20T08:02:22;2.20;;;1.50;;
71916;SDS011;59793;46.506;6.674;2023-03-20T08:04:48;3.88;;;1.48;;
71916;SDS011;59793;46.506;6.674;2023-03-20T08:07:13;2.63;;;1.53;;
71916;SDS011;59793;46.506;6.674;2023-03-20T08:09:39;2.40;;;1.42;;
71916;SDS011;59793;46.506;6.674;2023-03-20T08:12:05;2.30;;;1.70;;
71916;SDS011;59793;46.506;6.674;2023-03-20T08:14:31;2.50;;;1.67;;
71916;SDS011;59793;46.506;6.674;2023-03-20T08:16:56;3.57;;;1.57;;
71916;SDS011;59793;46.506;6.674;2023-03-20T08:19:22;2.95;;;1.48;;
71916;SDS011;59793;46.506;6.674;2023-03-20T08:21:48;2.23;;;1.50;;
71916;SDS011;59793;46.506;6.674;2023-03-20T08:24:15;2.13;;;1.48;;
71916;SDS011;59793;46.506;6.674;2023-03-20T08:26:41;3.45;;;1.85;;
71916;SDS011;59793;46.506;6.674;2023-03-20T08:29:07;1.95;;;1.20;;
71916;SDS011;59793;46.506;6.674;2023-03-20T08:31:33;3.17;;;1.60;;
71916;SDS011;59793;46.506;6.674;2023-03-20T08:33:59;2.13;;;1.63;;
71916;SDS011;59793;46.506;6.674;2023-03-20T08:36:25;7.25;;;1.52;;
71916;SDS011;59793;46.506;6.674;2023-03-20T08:38:50;4.18;;;1.63;;
71916;SDS011;59793;46.506;6.674;2023-03-20T08:41:16;2.20;;;1.42;;
71916;SDS011;59793;46.506;6.674;2023-03-20T08:43:42;4.03;;;1.47;;
71916;SDS011;59793;46.506;6.674;2023-03-20T08:46:07;2.70;;;1.65;;
71916;SDS011;59793;46.506;6.674;2023-03-20T08:48:33;2.63;;;1.70;;
71916;SDS011;59793;46.506;6.674;2023-03-20T08:50:59;3.50;;;1.30;;
71916;SDS011;59793;46.506;6.674;2023-03-20T08:53:25;1.48;;;1.23;;
71916;SDS011;59793;46.506;6.674;2023-03-20T08:55:51;3.03;;;1.40;;
71916;SDS011;59793;46.506;6.674;2023-03-20T08:58:18;2.58;;;1.42;;
71916;SDS011;59793;46.506;6.674;2023-03-20T09:00:44;4.82;;;1.88;;
71916;SDS011;59793;46.506;6.674;2023-03-20T09:03:11;2.78;;;1.70;;
71916;SDS011;59793;46.506;6.674;2023-03-20T09:05:44;5.03;;;2.15;;
71916;SDS011;59793;46.506;6.674;2023-03-20T09:08:10;2.97;;;2.40;;
71916;SDS011;59793;46.506;6.674;2023-03-20T09:10:36;3.23;;;2.17;;
71916;SDS011;59793;46.506;6.674;2023-03-20T09:13:01;4.17;;;2.60;;
71916;SDS011;59793;46.506;6.674;2023-03-20T09:15:27;3.43;;;2.33;;
71916;SDS011;59793;46.506;6.674;2023-03-20T09:17:52;4.37;;;2.40;;
71916;SDS011;59793;46.506;6.674;2023-03-20T09:20:18;3.45;;;2.25;;
71916;SDS011;59793;46.506;6.674;2023-03-20T09:22:44;4.57;;;2.38;;
71916;SDS011;59793;46.506;6.674;2023-03-20T09:25:09;4.40;;;2.50;;
71916;SDS011;59793;46.506;6.674;2023-03-20T09:27:35;4.18;;;2.53;;
71916;SDS011;59793;46.506;6.674;2023-03-20T09:30:01;3.23;;;2.33;;
71916;SDS011;59793;46.506;6.674;2023-03-20T09:32:28;4.20;;;2.40;;
71916;SDS011;59793;46.506;6.674;2023-03-20T09:34:53;4.03;;;2.30;;
71916;SDS011;59793;46.506;6.674;2023-03-20T09:37:19;3.53;;;1.93;;
71916;SDS011;59793;46.506;6.674;2023-03-20T09:39:44;3.55;;;2.10;;
71916;SDS011;59793;46.506;6.674;2023-03-20T09:48:06;2.60;;;1.88;;
71916;SDS011;59793;46.506;6.674;2023-03-20T09:50:52;3.45;;;1.77;;
71916;SDS011;59793;46.506;6.674;2023-03-20T09:53:24;3.35;;;1.75;;
71916;SDS011;59793;46.506;6.674;2023-03-20T09:55:55;2.55;;;1.67;;
71916;SDS011;59793;46.506;6.674;2023-03-20T10:00:54;2.70;;;1.60;;
71916;SDS011;59793;46.506;6.674;2023-03-20T10:05:58;3.83;;;1.83;;
71916;SDS011;59793;46.506;6.674;2023-03-20T10:18:59;2.17;;;1.40;;
71916;SDS011;59793;46.506;6.674;2023-03-20T10:21:38;1.95;;;1.45;;
71916;SDS011;59793;46.506;6.674;2023-03-20T10:24:11;3.60;;;2.05;;
71916;SDS011;59793;46.506;6.674;2023-03-20T10:26:50;3.72;;;1.70;;
71916;SDS011;59793;46.506;6.674;2023-03-20T10:29:23;2.58;;;1.50;;
71916;SDS011;59793;46.506;6.674;2023-03-20T10:31:59;3.63;;;1.98;;
71916;SDS011;59793;46.506;6.674;2023-03-20T10:34:33;2.53;;;1.42;;
71916;SDS011;59793;46.506;6.674;2023-03-20T10:37:16;3.05;;;1.73;;
71916;SDS011;59793;46.506;6.674;2023-03-20T10:42:29;2.22;;;1.42;;
71916;SDS011;59793;46.506;6.674;2023-03-20T10:47:42;2.20;;;1.50;;
71916;SDS011;59793;46.506;6.674;2023-03-20T10:50:22;2.97;;;1.70;;
71916;SDS011;59793;46.506;6.674;2023-03-20T10:52:55;3.55;;;1.20;;
71916;SDS011;59793;46.506;6.674;2023-03-20T10:58:27;3.28;;;2.17;;
71916;SDS011;59793;46.506;6.674;2023-03-20T11:00:49;6.57;;;2.20;;
71916;SDS011;59793;46.506;6.674;2023-03-20T11:03:25;3.92;;;2.50;;
71916;SDS011;59793;46.506;6.674;2023-03-20T11:08:29;5.45;;;2.50;;
71916;SDS011;59793;46.506;6.674;2023-03-20T11:11:03;3.63;;;2.70;;
71916;SDS011;59793;46.506;6.674;2023-03-20T11:15:56;5.15;;;2.13;;
71916;SDS011;59793;46.506;6.674;2023-03-20T11:18:40;4.45;;;2.10;;
71916;SDS011;59793;46.506;6.674;2023-03-20T11:21:06;2.90;;;1.90;;
71916;SDS011;59793;46.506;6.674;2023-03-20T11:23:38;2.90;;;1.83;;
71916;SDS011;59793;46.506;6.674;2023-03-20T11:26:04;3.57;;;2.03;;
71916;SDS011;59793;46.506;6.674;2023-03-20T11:28:41;3.10;;;2.22;;
71916;SDS011;59793;46.506;6.674;2023-03-20T11:33:38;3.30;;;2.00;;
71916;SDS011;59793;46.506;6.674;2023-03-20T11:36:11;2.70;;;2.00;;
71916;SDS011;59793;46.506;6.674;2023-03-20T11:38:45;3.58;;;1.80;;
71916;SDS011;59793;46.506;6.674;2023-03-20T11:47:13;3.92;;;1.83;;
71916;SDS011;59793;46.506;6.674;2023-03-20T11:49:44;3.03;;;2.00;;
71916;SDS011;59793;46.506;6.674;2023-03-20T11:52:14;2.42;;;1.98;;
71916;SDS011;59793;46.506;6.674;2023-03-20T11:54:45;3.92;;;2.40;;
71916;SDS011;59793;46.506;6.674;2023-03-20T12:02:45;3.40;;;2.25;;
71916;SDS011;59793;46.506;6.674;2023-03-20T12:05:31;2.63;;;2.00;;
71916;SDS011;59793;46.506;6.674;2023-03-20T12:08:02;3.10;;;1.67;;
71916;SDS011;59793;46.506;6.674;2023-03-20T12:10:49;4.00;;;2.08;;
71916;SDS011;59793;46.506;6.674;2023-03-20T12:13:23;4.10;;;2.10;;
71916;SDS011;59793;46.506;6.674;2023-03-20T12:15:54;4.75;;;2.22;;
71916;SDS011;59793;46.506;6.674;2023-03-20T12:21:14;5.95;;;1.58;;
71916;SDS011;59793;46.506;6.674;2023-03-20T12:29:45;2.40;;;1.50;;
71916;SDS011;59793;46.506;6.674;2023-03-20T12:32:03;4.57;;;1.75;;
71916;SDS011;59793;46.506;6.674;2023-03-20T12:34:42;1.80;;;1.25;;
71916;SDS011;59793;46.506;6.674;2023-03-20T12:37:11;2.17;;;1.80;;
71916;SDS011;59793;46.506;6.674;2023-03-20T12:39:48;3.22;;;1.77;;
71916;SDS011;59793;46.506;6.674;2023-03-20T12:45:17;3.17;;;1.85;;
71916;SDS011;59793;46.506;6.674;2023-03-20T12:53:21;3.13;;;1.88;;
71916;SDS011;59793;46.506;6.674;2023-03-20T12:56:20;7.22;;;1.90;;
71916;SDS011;59793;46.506;6.674;2023-03-20T13:01:31;2.13;;;1.52;;
71916;SDS011;59793;46.506;6.674;2023-03-20T13:09:08;2.13;;;1.20;;
71916;SDS011;59793;46.506;6.674;2023-03-20T13:11:50;2.50;;;1.50;;
71916;SDS011;59793;46.506;6.674;2023-03-20T13:19:39;2.78;;;0.95;;
71916;SDS011;59793;46.506;6.674;2023-03-20T13:39:48;2.05;;;1.48;;
71916;SDS011;59793;46.506;6.674;2023-03-20T13:42:17;3.03;;;1.40;;
71916;SDS011;59793;46.506;6.674;2023-03-20T13:44:47;2.13;;;1.67;;
71916;SDS011;59793;46.506;6.674;2023-03-20T13:47:23;3.15;;;1.85;;
71916;SDS011;59793;46.506;6.674;2023-03-20T13:49:57;2.60;;;1.17;;
71916;SDS011;59793;46.506;6.674;2023-03-20T13:52:44;7.38;;;1.27;;
71916;SDS011;59793;46.506;6.674;2023-03-20T14:01:08;3.50;;;0.90;;
71916;SDS011;59793;46.506;6.674;2023-03-20T14:03:44;1.60;;;1.10;;
71916;SDS011;59793;46.506;6.674;2023-03-20T14:06:17;2.60;;;1.17;;
71916;SDS011;59793;46.506;6.674;2023-03-20T14:08:55;2.85;;;1.48;;
71916;SDS011;59793;46.506;6.674;2023-03-20T14:16:16;3.13;;;1.40;;
71916;SDS011;59793;46.506;6.674;2023-03-20T14:18:44;2.13;;;1.10;;
71916;SDS011;59793;46.506;6.674;2023-03-20T14:21:12;1.67;;;1.23;;
71916;SDS011;59793;46.506;6.674;2023-03-20T14:23:42;2.50;;;1.40;;
71916;SDS011;59793;46.506;6.674;2023-03-20T14:29:01;3.17;;;1.30;;
71916;SDS011;59793;46.506;6.674;2023-03-20T14:31:47;1.27;;;0.90;;
71916;SDS011;59793;46.506;6.674;2023-03-20T14:34:14;2.22;;;1.13;;
71916;SDS011;59793;46.506;6.674;2023-03-20T14:36:56;1.50;;;1.08;;
71916;SDS011;59793;46.506;6.674;2023-03-20T14:47:26;2.80;;;1.13;;
71916;SDS011;59793;46.506;6.674;2023-03-20T14:57:52;0.60;;;0.60;;
71916;SDS011;59793;46.506;6.674;2023-03-20T15:00:18;1.45;;;0.68;;
71916;SDS011;59793;46.506;6.674;2023-03-20T15:02:54;2.22;;;0.50;;
71916;SDS011;59793;46.506;6.674;2023-03-20T15:05:29;2.75;;;0.70;;
71916;SDS011;59793;46.506;6.674;2023-03-20T15:08:02;1.15;;;0.80;;
71916;SDS011;59793;46.506;6.674;2023-03-20T15:10:33;2.78;;;1.00;;
71916;SDS011;59793;46.506;6.674;2023-03-20T15:13:01;0.50;;;0.50;;
71916;SDS011;59793;46.506;6.674;2023-03-20T15:15:30;2.10;;;1.10;;
71916;SDS011;59793;46.506;6.674;2023-03-20T15:20:28;1.55;;;0.70;;
71916;SDS011;59793;46.506;6.674;2023-03-20T15:22:54;2.33;;;1.80;;
71916;SDS011;59793;46.506;6.674;2023-03-20T15:25:22;2.40;;;1.48;;
71916;SDS011;59793;46.506;6.674;2023-03-20T15:27:52;2.05;;;1.50;;
71916;SDS011;59793;46.506;6.674;2023-03-20T15:30:18;2.17;;;1.57;;
71916;SDS011;59793;46.506;6.674;2023-03-20T15:32:47;2.55;;;1.30;;
71916;SDS011;59793;46.506;6.674;2023-03-20T15:35:15;5.53;;;3.15;;
71916;SDS011;59793;46.506;6.674;2023-03-20T15:37:45;3.00;;;1.65;;
71916;SDS011;59793;46.506;6.674;2023-03-20T15:40:22;2.60;;;1.63;;
71916;SDS011;59793;46.506;6.674;2023-03-20T15:42:53;1.50;;;1.20;;
71916;SDS011;59793;46.506;6.674;2023-03-20T15:45:30;2.30;;;1.50;;
71916;SDS011;59793;46.506;6.674;2023-03-20T15:47:58;3.25;;;1.85;;
71916;SDS011;59793;46.506;6.674;2023-03-20T15:50:52;1.85;;;1.23;;
71916;SDS011;59793;46.506;6.674;2023-03-20T15:53:31;3.00;;;1.42;;
71916;SDS011;59793;46.506;6.674;2023-03-20T15:56:04;2.75;;;1.27;;
71916;SDS011;59793;46.506;6.674;2023-03-20T15:58:31;1.20;;;0.90;;
71916;SDS011;59793;46.506;6.674;2023-03-20T16:00:58;2.17;;;1.60;;
71916;SDS011;59793;46.506;6.674;2023-03-20T16:03:25;2.08;;;1.02;;
71916;SDS011;59793;46.506;6.674;2023-03-20T16:05:52;0.80;;;0.70;;
71916;SDS011;59793;46.506;6.674;2023-03-20T16:13:22;2.35;;;1.00;;
71916;SDS011;59793;46.506;6.674;2023-03-20T16:15:49;1.20;;;0.80;;
71916;SDS011;59793;46.506;6.674;2023-03-20T16:18:17;1.52;;;0.90;;
71916;SDS011;59793;46.506;6.674;2023-03-20T16:20:46;1.42;;;0.40;;
71916;SDS011;59793;46.506;6.674;2023-03-20T16:23:40;3.03;;;0.60;;
71916;SDS011;59793;46.506;6.674;2023-03-20T16:26:11;1.42;;;0.50;;
71916;SDS011;59793;46.506;6.674;2023-03-20T16:28:41;3.13;;;0.40;;
71916;SDS011;59793;46.506;6.674;2023-03-20T16:31:12;1.77;;;0.50;;
71916;SDS011;59793;46.506;6.674;2023-03-20T16:33:42;1.20;;;0.57;;
71916;SDS011;59793;46.506;6.674;2023-03-20T16:36:11;1.75;;;0.88;;
71916;SDS011;59793;46.506;6.674;2023-03-20T16:38:52;2.38;;;0.43;;
71916;SDS011;59793;46.506;6.674;2023-03-20T16:43:48;1.38;;;0.77;;
71916;SDS011;59793;46.506;6.674;2023-03-20T16:46:21;2.92;;;0.47;;
71916;SDS011;59793;46.506;6.674;2023-03-20T16:48:49;2.88;;;0.57;;
71916;SDS011;59793;46.506;6.674;2023-03-20T16:51:19;2.03;;;0.70;;
71916;SDS011;59793;46.506;6.674;2023-03-20T16:53:47;1.70;;;0.60;;
71916;SDS011;59793;46.506;6.674;2023-03-20T16:56:21;1.48;;;0.45;;
71916;SDS011;59793;46.506;6.674;2023-03-20T16:58:53;1.33;;;0.73;;
71916;SDS011;59793;46.506;6.674;2023-03-20T17:01:20;0.93;;;0.52;;
71916;SDS011;59793;46.506;6.674;2023-03-20T17:03:54;2.63;;;1.63;;
71916;SDS011;59793;46.506;6.674;2023-03-20T17:08:54;1.70;;;0.60;;
71916;SDS011;59793;46.506;6.674;2023-03-20T17:11:30;1.80;;;0.80;;
71916;SDS011;59793;46.506;6.674;2023-03-20T17:13:58;2.40;;;0.95;;
71916;SDS011;59793;46.506;6.674;2023-03-20T17:16:24;1.53;;;0.90;;
71916;SDS011;59793;46.506;6.674;2023-03-20T17:19:00;1.70;;;1.10;;
71916;SDS011;59793;46.506;6.674;2023-03-20T17:21:28;1.65;;;0.77;;
71916;SDS011;59793;46.506;6.674;2023-03-20T17:23:54;1.90;;;1.03;;
71916;SDS011;59793;46.506;6.674;2023-03-20T17:26:19;2.83;;;0.60;;
71916;SDS011;59793;46.506;6.674;2023-03-20T17:28:44;1.83;;;1.03;;
71916;SDS011;59793;46.506;6.674;2023-03-20T17:31:12;1.97;;;0.83;;
71916;SDS011;59793;46.506;6.674;2023-03-20T17:33:38;2.20;;;0.73;;
71916;SDS011;59793;46.506;6.674;2023-03-20T17:36:04;2.27;;;0.90;;
71916;SDS011;59793;46.506;6.674;2023-03-20T17:38:38;2.33;;;0.82;;
71916;SDS011;59793;46.506;6.674;2023-03-20T17:41:04;1.73;;;0.83;;
71916;SDS011;59793;46.506;6.674;2023-03-20T17:43:29;1.27;;;0.77;;
71916;SDS011;59793;46.506;6.674;2023-03-20T17:45:55;1.83;;;0.80;;
71916;SDS011;59793;46.506;6.674;2023-03-20T17:48:20;5.00;;;1.23;;
71916;SDS011;59793;46.506;6.674;2023-03-20T17:50:47;3.07;;;1.03;;
71916;SDS011;59793;46.506;6.674;2023-03-20T17:53:17;2.20;;;0.80;;
71916;SDS011;59793;46.506;6.674;2023-03-20T17:55:43;3.10;;;0.80;;
71916;SDS011;59793;46.506;6.674;2023-03-20T17:58:12;3.00;;;0.77;;
71916;SDS011;59793;46.506;6.674;2023-03-20T18:00:38;12.70;;;1.90;;
71916;SDS011;59793;46.506;6.674;2023-03-20T18:03:04;2.97;;;0.90;;
71916;SDS011;59793;46.506;6.674;2023-03-20T18:05:29;3.50;;;1.10;;
71916;SDS011;59793;46.506;6.674;2023-03-20T18:07:56;3.03;;;1.13;;
71916;SDS011;59793;46.506;6.674;2023-03-20T18:10:27;1.33;;;0.80;;
71916;SDS011;59793;46.506;6.674;2023-03-20T18:12:55;2.55;;;0.77;;